SI-0018 weather

Podpeč field
Ljubljana, Slovenia

Public forecast

Using degrees Celsius for public forecast. Weather courtesy of forecast.io.

Closest aviation weather report (METAR) to Podpeč field

Closest report is Ljubljana Jože Pučnik Airport, 15.1 nm (28.0 km) N. Retrieved 2020/08/05 04:00 UTC (38 seconds ago):

LJLJ 050400Z VRB01KT 9999 FEW040TCU BKN060 14/14 Q1014 NOSIG

Closest aviation forecast (TAF) to Podpeč field

Closest forecast is Ljubljana Jože Pučnik Airport, 15.1 nm (28.0 km) N. Retrieved 2020-08-05 00:05 UTC (4 hours ago):

TAF LJLJ 042300Z 0500/0524 11005KT 9999 FEW040 SCT060 BKN100 TEMPO 0500/0508 SHRA SCT030TCU BKN050 PROB30 TEMPO 0502/0508 0600 FG VV001 TEMPO 0515/0524 SHRA SCT030TCU BKN050